Kenai Fjords National Park, AK

12:40 PM AKDT on October 24, 2014 (GMT -0800)
Soldotna | Change Station
CLOSE
Current Station
Airport
Location: Soldotna,
Elevation: 112 ft
Nearby Weather Stations

Elev 112 ft 60.48 °N, 151.03 °W | Updated 4 minutes ago

Clear
Clear
30 °F
Feels Like 30 °F
N
0
Wind Variable Wind from North

Today
High -- | Low -- °F
--% Chance of Precip.
Yesterday
High -- | Low -- °F
Precip. -- in
9:09 AM 6:27 PM
New Moon, 1% visible
Pressure 29.81 in
Visibility 10.0 miles
Clouds Clear
Dew Point 25 °F
Humidity 80%
Rainfall 0.00 in
Snow Depth Not available.
UV 1 out of 12
Pollen Not available.
Air Quality Not available.
Flu Activity Sporadic
METAR PASX 242036Z AUTO 00000KT 10SM CLR M01/M04 A2981 RMK AO1

More Conditions Fewer Conditions

Pressure 29.81 in
Visibility 10.0 miles
Clouds Clear
Dew Point 25 °F
Humidity 80%
Rainfall 0.00 in
Snow Depth Not available.
UV 1 out of 12
Pollen Not available.
Air Quality Not available.
Flu Activity Sporadic
METAR PASX 242036Z AUTO 00000KT 10SM CLR M01/M04 A2981 RMK AO1

More Conditions Fewer Conditions

10-Day Weather Forecast

Almanac

Astronomy

Oct. 24, 2014 Rise Set
Actual Time 9:09 AM AKDT 6:27 PM AKDT
Civil Twilight 8:24 AM AKDT 7:12 PM AKDT
Nautical Twilight 7:35 AM AKDT 8:01 PM AKDT
Astronomical Twilight 6:46 AM AKDT 8:50 PM AKDT
Moon 10:10 AM AKDT 6:59 PM AKDT
Length of Visible Light 10h 47m
Length of Day
9h 18m
Tomorrow will be 5m 25s shorter.
New Moon, 1% of the Moon is Illuminated
Today
New Moon
Oct 30
First Quarter
Nov 6
Full
Nov 14
Last Quarter
Nov 22
New

Today's Extremes

State Highs State Lows

Community

WunderPhotos

Upload Photos

1,764,654 photos uploaded!

Nearby

Snow Depth

Station Depth Elevation
Cooper Lake 1 in 1200 ft
MF Bradley River 0 in 2300 ft
Summit Creek 3 in 1400 ft
Mcneil Canyon 1 in 1320 ft
Grouse Creek Divide 0 in 700 ft

Earthquake Activity

City Distance Mag. Time & Date
No recent earthquake activity has been reported nearby.
Minimum magnitude displayed is 2.5.

Coastal Water Temperatures

Place Temperature
No Stations Reporting

Nearby Weather Stations